sensor_id;sensor_type;location;lat;lon;timestamp;temperature;humidity
12769;DHT22;6448;48.916;8.990;2022-08-01T00:00:38;29.90;30.90
12769;DHT22;6448;48.916;8.990;2022-08-01T00:01:38;29.90;30.90
12769;DHT22;6448;48.916;8.990;2022-08-01T00:02:40;29.90;31.00
12769;DHT22;6448;48.916;8.990;2022-08-01T00:03:41;29.90;31.00
12769;DHT22;6448;48.916;8.990;2022-08-01T00:04:43;29.80;31.00
12769;DHT22;6448;48.916;8.990;2022-08-01T00:05:44;29.80;31.10
12769;DHT22;6448;48.916;8.990;2022-08-01T00:06:47;29.80;31.20
12769;DHT22;6448;48.916;8.990;2022-08-01T00:07:50;29.80;31.30
12769;DHT22;6448;48.916;8.990;2022-08-01T00:08:51;29.80;31.40
12769;DHT22;6448;48.916;8.990;2022-08-01T00:09:52;29.80;31.40
12769;DHT22;6448;48.916;8.990;2022-08-01T00:10:54;29.80;32.10
12769;DHT22;6448;48.916;8.990;2022-08-01T00:11:55;29.70;31.40
12769;DHT22;6448;48.916;8.990;2022-08-01T00:12:56;29.70;31.40
12769;DHT22;6448;48.916;8.990;2022-08-01T00:13:57;29.70;31.40
12769;DHT22;6448;48.916;8.990;2022-08-01T00:14:59;29.70;31.40
12769;DHT22;6448;48.916;8.990;2022-08-01T00:16:00;29.70;31.60
12769;DHT22;6448;48.916;8.990;2022-08-01T00:17:02;29.70;31.70
12769;DHT22;6448;48.916;8.990;2022-08-01T00:18:04;29.70;31.70
12769;DHT22;6448;48.916;8.990;2022-08-01T00:19:04;29.60;31.70
12769;DHT22;6448;48.916;8.990;2022-08-01T00:20:08;29.70;31.80
12769;DHT22;6448;48.916;8.990;2022-08-01T00:21:10;29.70;32.00
12769;DHT22;6448;48.916;8.990;2022-08-01T00:22:12;29.70;32.00
12769;DHT22;6448;48.916;8.990;2022-08-01T00:23:14;29.60;32.70
12769;DHT22;6448;48.916;8.990;2022-08-01T00:24:15;29.60;32.10
12769;DHT22;6448;48.916;8.990;2022-08-01T00:25:17;29.60;32.20
12769;DHT22;6448;48.916;8.990;2022-08-01T00:26:18;29.60;32.20
12769;DHT22;6448;48.916;8.990;2022-08-01T00:27:20;29.60;32.20
12769;DHT22;6448;48.916;8.990;2022-08-01T00:28:28;29.60;32.20
12769;DHT22;6448;48.916;8.990;2022-08-01T00:29:32;29.60;32.40
12769;DHT22;6448;48.916;8.990;2022-08-01T00:30:33;29.50;32.20
12769;DHT22;6448;48.916;8.990;2022-08-01T00:31:34;29.50;32.20
12769;DHT22;6448;48.916;8.990;2022-08-01T00:32:35;29.40;32.20
12769;DHT22;6448;48.916;8.990;2022-08-01T00:33:37;29.50;32.30
12769;DHT22;6448;48.916;8.990;2022-08-01T00:34:38;29.50;32.50
12769;DHT22;6448;48.916;8.990;2022-08-01T00:35:39;29.50;32.50
12769;DHT22;6448;48.916;8.990;2022-08-01T00:36:40;29.50;32.50
12769;DHT22;6448;48.916;8.990;2022-08-01T00:37:42;29.50;32.50
12769;DHT22;6448;48.916;8.990;2022-08-01T00:38:45;29.50;32.50
12769;DHT22;6448;48.916;8.990;2022-08-01T00:39:47;29.50;32.60
12769;DHT22;6448;48.916;8.990;2022-08-01T00:40:48;29.40;32.50
12769;DHT22;6448;48.916;8.990;2022-08-01T00:41:50;29.50;32.50
12769;DHT22;6448;48.916;8.990;2022-08-01T00:42:51;29.40;32.50
12769;DHT22;6448;48.916;8.990;2022-08-01T00:43:52;29.50;32.60
12769;DHT22;6448;48.916;8.990;2022-08-01T00:44:53;29.40;32.60
12769;DHT22;6448;48.916;8.990;2022-08-01T00:45:55;29.40;32.70
12769;DHT22;6448;48.916;8.990;2022-08-01T00:46:57;29.40;32.80
12769;DHT22;6448;48.916;8.990;2022-08-01T00:47:57;29.40;32.80
12769;DHT22;6448;48.916;8.990;2022-08-01T00:49:00;29.40;32.90
12769;DHT22;6448;48.916;8.990;2022-08-01T00:50:03;29.30;32.80
12769;DHT22;6448;48.916;8.990;2022-08-01T00:51:05;29.40;32.90
12769;DHT22;6448;48.916;8.990;2022-08-01T00:52:08;29.40;33.00
12769;DHT22;6448;48.916;8.990;2022-08-01T00:53:09;29.40;33.00
12769;DHT22;6448;48.916;8.990;2022-08-01T00:54:12;29.30;33.00
12769;DHT22;6448;48.916;8.990;2022-08-01T00:55:13;29.30;33.00
12769;DHT22;6448;48.916;8.990;2022-08-01T00:56:15;29.30;33.00
12769;DHT22;6448;48.916;8.990;2022-08-01T00:57:17;29.30;33.00
12769;DHT22;6448;48.916;8.990;2022-08-01T00:58:18;29.20;33.00
12769;DHT22;6448;48.916;8.990;2022-08-01T00:59:21;29.30;33.00
12769;DHT22;6448;48.916;8.990;2022-08-01T01:00:22;29.30;33.00
12769;DHT22;6448;48.916;8.990;2022-08-01T01:01:24;29.30;33.10
12769;DHT22;6448;48.916;8.990;2022-08-01T01:02:25;29.30;33.20
12769;DHT22;6448;48.916;8.990;2022-08-01T01:03:27;29.30;33.20
12769;DHT22;6448;48.916;8.990;2022-08-01T01:04:28;29.20;33.20
12769;DHT22;6448;48.916;8.990;2022-08-01T01:05:33;29.20;33.30
12769;DHT22;6448;48.916;8.990;2022-08-01T01:06:44;29.20;33.20
12769;DHT22;6448;48.916;8.990;2022-08-01T01:07:50;29.20;34.00
12769;DHT22;6448;48.916;8.990;2022-08-01T01:09:01;29.20;34.10
12769;DHT22;6448;48.916;8.990;2022-08-01T01:10:10;29.20;33.50
12769;DHT22;6448;48.916;8.990;2022-08-01T01:11:16;29.30;33.60
12769;DHT22;6448;48.916;8.990;2022-08-01T01:12:27;29.20;33.60
12769;DHT22;6448;48.916;8.990;2022-08-01T01:13:36;29.30;33.60
12769;DHT22;6448;48.916;8.990;2022-08-01T01:14:44;29.00;33.50
12769;DHT22;6448;48.916;8.990;2022-08-01T01:15:51;29.10;33.60
12769;DHT22;6448;48.916;8.990;2022-08-01T01:16:58;29.10;33.60
12769;DHT22;6448;48.916;8.990;2022-08-01T01:18:02;29.00;33.50
12769;DHT22;6448;48.916;8.990;2022-08-01T01:19:10;29.10;33.70
12769;DHT22;6448;48.916;8.990;2022-08-01T01:20:15;29.10;33.80
12769;DHT22;6448;48.916;8.990;2022-08-01T01:21:39;29.10;33.90
12769;DHT22;6448;48.916;8.990;2022-08-01T01:22:53;29.10;33.90
12769;DHT22;6448;48.916;8.990;2022-08-01T01:24:06;29.10;34.00
12769;DHT22;6448;48.916;8.990;2022-08-01T01:25:29;29.10;34.00
12769;DHT22;6448;48.916;8.990;2022-08-01T01:26:42;29.10;34.10
12769;DHT22;6448;48.916;8.990;2022-08-01T01:27:51;29.10;34.00
12769;DHT22;6448;48.916;8.990;2022-08-01T01:29:07;29.00;34.10
12769;DHT22;6448;48.916;8.990;2022-08-01T01:30:10;29.00;34.10
12769;DHT22;6448;48.916;8.990;2022-08-01T01:31:12;29.00;34.20
12769;DHT22;6448;48.916;8.990;2022-08-01T01:32:18;29.00;34.20
12769;DHT22;6448;48.916;8.990;2022-08-01T01:33:21;29.10;34.30
12769;DHT22;6448;48.916;8.990;2022-08-01T01:34:24;29.10;34.20
12769;DHT22;6448;48.916;8.990;2022-08-01T01:35:29;29.00;34.20
12769;DHT22;6448;48.916;8.990;2022-08-01T01:36:32;29.00;34.20
12769;DHT22;6448;48.916;8.990;2022-08-01T01:37:35;29.00;34.20
12769;DHT22;6448;48.916;8.990;2022-08-01T01:38:42;29.00;34.20
12769;DHT22;6448;48.916;8.990;2022-08-01T01:39:44;29.00;34.30
12769;DHT22;6448;48.916;8.990;2022-08-01T01:40:48;28.90;34.30
12769;DHT22;6448;48.916;8.990;2022-08-01T01:41:50;28.90;34.40
12769;DHT22;6448;48.916;8.990;2022-08-01T01:42:55;28.90;34.40
12769;DHT22;6448;48.916;8.990;2022-08-01T01:43:56;28.90;34.40
12769;DHT22;6448;48.916;8.990;2022-08-01T01:45:03;28.90;34.40
12769;DHT22;6448;48.916;8.990;2022-08-01T01:46:05;28.90;34.50
12769;DHT22;6448;48.916;8.990;2022-08-01T01:47:07;28.90;34.60
12769;DHT22;6448;48.916;8.990;2022-08-01T01:48:09;28.90;34.70
12769;DHT22;6448;48.916;8.990;2022-08-01T01:49:12;28.90;34.80
12769;DHT22;6448;48.916;8.990;2022-08-01T01:50:14;28.90;34.80
12769;DHT22;6448;48.916;8.990;2022-08-01T01:51:18;28.90;34.70
12769;DHT22;6448;48.916;8.990;2022-08-01T01:52:23;28.90;34.70
12769;DHT22;6448;48.916;8.990;2022-08-01T01:53:27;28.90;34.70
12769;DHT22;6448;48.916;8.990;2022-08-01T01:54:30;28.90;34.70
12769;DHT22;6448;48.916;8.990;2022-08-01T01:55:34;28.90;34.70
12769;DHT22;6448;48.916;8.990;2022-08-01T01:56:36;28.90;34.70
12769;DHT22;6448;48.916;8.990;2022-08-01T01:57:49;28.80;34.60
12769;DHT22;6448;48.916;8.990;2022-08-01T01:58:53;28.80;34.70
12769;DHT22;6448;48.916;8.990;2022-08-01T01:59:55;28.80;34.80
12769;DHT22;6448;48.916;8.990;2022-08-01T02:00:59;28.80;34.80
12769;DHT22;6448;48.916;8.990;2022-08-01T02:02:04;28.70;34.80
12769;DHT22;6448;48.916;8.990;2022-08-01T02:03:09;28.70;34.90
12769;DHT22;6448;48.916;8.990;2022-08-01T02:04:12;28.70;35.00
12769;DHT22;6448;48.916;8.990;2022-08-01T02:05:13;28.70;35.00
12769;DHT22;6448;48.916;8.990;2022-08-01T02:06:16;28.70;35.10
12769;DHT22;6448;48.916;8.990;2022-08-01T02:07:21;28.60;35.10
12769;DHT22;6448;48.916;8.990;2022-08-01T02:08:24;28.60;35.20
12769;DHT22;6448;48.916;8.990;2022-08-01T02:09:26;28.70;35.30
12769;DHT22;6448;48.916;8.990;2022-08-01T02:10:29;28.70;35.30
12769;DHT22;6448;48.916;8.990;2022-08-01T02:11:32;28.60;35.40
12769;DHT22;6448;48.916;8.990;2022-08-01T02:12:36;28.60;35.50
12769;DHT22;6448;48.916;8.990;2022-08-01T02:13:39;28.50;35.40
12769;DHT22;6448;48.916;8.990;2022-08-01T02:14:42;28.50;35.50
12769;DHT22;6448;48.916;8.990;2022-08-01T02:15:47;28.50;35.60
12769;DHT22;6448;48.916;8.990;2022-08-01T02:16:54;28.50;35.60
12769;DHT22;6448;48.916;8.990;2022-08-01T02:17:59;28.50;35.70
12769;DHT22;6448;48.916;8.990;2022-08-01T02:19:01;28.50;35.80
12769;DHT22;6448;48.916;8.990;2022-08-01T02:20:03;28.40;35.80
12769;DHT22;6448;48.916;8.990;2022-08-01T02:21:09;28.40;35.80
12769;DHT22;6448;48.916;8.990;2022-08-01T02:22:18;28.40;35.80
12769;DHT22;6448;48.916;8.990;2022-08-01T02:23:20;28.50;35.90
12769;DHT22;6448;48.916;8.990;2022-08-01T02:24:35;28.40;35.90
12769;DHT22;6448;48.916;8.990;2022-08-01T02:25:42;28.40;35.90
12769;DHT22;6448;48.916;8.990;2022-08-01T02:26:49;28.30;35.90
12769;DHT22;6448;48.916;8.990;2022-08-01T02:27:55;28.30;35.90
12769;DHT22;6448;48.916;8.990;2022-08-01T02:29:06;28.40;36.10
12769;DHT22;6448;48.916;8.990;2022-08-01T02:30:08;28.40;36.10
12769;DHT22;6448;48.916;8.990;2022-08-01T02:31:14;28.40;36.10
12769;DHT22;6448;48.916;8.990;2022-08-01T02:32:26;28.40;36.10
12769;DHT22;6448;48.916;8.990;2022-08-01T02:33:34;28.40;36.20
12769;DHT22;6448;48.916;8.990;2022-08-01T02:34:36;28.40;36.20
12769;DHT22;6448;48.916;8.990;2022-08-01T02:35:41;28.50;36.30
12769;DHT22;6448;48.916;8.990;2022-08-01T02:36:44;28.50;36.30
12769;DHT22;6448;48.916;8.990;2022-08-01T02:37:48;28.40;36.20
12769;DHT22;6448;48.916;8.990;2022-08-01T02:38:50;28.40;36.20
12769;DHT22;6448;48.916;8.990;2022-08-01T02:39:53;28.40;36.20
12769;DHT22;6448;48.916;8.990;2022-08-01T02:40:55;28.40;36.30
12769;DHT22;6448;48.916;8.990;2022-08-01T02:42:02;28.40;36.30
12769;DHT22;6448;48.916;8.990;2022-08-01T02:43:05;28.40;36.30
12769;DHT22;6448;48.916;8.990;2022-08-01T02:44:10;28.40;36.30
12769;DHT22;6448;48.916;8.990;2022-08-01T02:45:12;28.30;36.30
12769;DHT22;6448;48.916;8.990;2022-08-01T02:46:19;28.40;36.50
12769;DHT22;6448;48.916;8.990;2022-08-01T02:47:23;28.30;36.40
12769;DHT22;6448;48.916;8.990;2022-08-01T02:48:27;28.30;36.40
12769;DHT22;6448;48.916;8.990;2022-08-01T02:49:31;28.30;36.50
12769;DHT22;6448;48.916;8.990;2022-08-01T02:50:34;28.30;36.50
12769;DHT22;6448;48.916;8.990;2022-08-01T02:51:36;28.30;36.50
12769;DHT22;6448;48.916;8.990;2022-08-01T02:52:40;28.30;36.50
12769;DHT22;6448;48.916;8.990;2022-08-01T02:53:42;28.30;36.60
12769;DHT22;6448;48.916;8.990;2022-08-01T02:54:47;28.30;36.50
12769;DHT22;6448;48.916;8.990;2022-08-01T02:55:49;28.30;36.60
12769;DHT22;6448;48.916;8.990;2022-08-01T02:56:54;28.30;36.60
12769;DHT22;6448;48.916;8.990;2022-08-01T02:57:56;28.30;36.60
12769;DHT22;6448;48.916;8.990;2022-08-01T02:58:59;28.30;36.50
12769;DHT22;6448;48.916;8.990;2022-08-01T03:00:01;28.30;36.60
12769;DHT22;6448;48.916;8.990;2022-08-01T03:01:03;28.30;36.60
12769;DHT22;6448;48.916;8.990;2022-08-01T03:02:05;28.30;36.60
12769;DHT22;6448;48.916;8.990;2022-08-01T03:03:10;28.30;36.60
12769;DHT22;6448;48.916;8.990;2022-08-01T03:04:11;28.30;36.60
12769;DHT22;6448;48.916;8.990;2022-08-01T03:05:14;28.30;36.60
12769;DHT22;6448;48.916;8.990;2022-08-01T03:06:17;28.30;36.60
12769;DHT22;6448;48.916;8.990;2022-08-01T03:07:19;28.30;36.60
12769;DHT22;6448;48.916;8.990;2022-08-01T03:08:22;28.30;37.30
12769;DHT22;6448;48.916;8.990;2022-08-01T03:09:25;28.30;36.60
12769;DHT22;6448;48.916;8.990;2022-08-01T03:10:28;28.30;36.70
12769;DHT22;6448;48.916;8.990;2022-08-01T03:11:31;28.30;36.70
12769;DHT22;6448;48.916;8.990;2022-08-01T03:12:34;28.30;36.70
12769;DHT22;6448;48.916;8.990;2022-08-01T03:13:35;28.30;36.70
12769;DHT22;6448;48.916;8.990;2022-08-01T03:14:39;28.30;36.80
12769;DHT22;6448;48.916;8.990;2022-08-01T03:15:43;28.30;36.90
12769;DHT22;6448;48.916;8.990;2022-08-01T03:16:45;28.30;36.90
12769;DHT22;6448;48.916;8.990;2022-08-01T03:17:47;28.30;36.90
12769;DHT22;6448;48.916;8.990;2022-08-01T03:18:53;28.30;37.00
12769;DHT22;6448;48.916;8.990;2022-08-01T03:19:57;28.40;37.00
12769;DHT22;6448;48.916;8.990;2022-08-01T03:21:01;28.30;37.00
12769;DHT22;6448;48.916;8.990;2022-08-01T03:22:03;28.30;37.10
12769;DHT22;6448;48.916;8.990;2022-08-01T03:23:09;28.30;37.10
12769;DHT22;6448;48.916;8.990;2022-08-01T03:24:11;28.30;37.10
12769;DHT22;6448;48.916;8.990;2022-08-01T03:25:15;28.30;37.10
12769;DHT22;6448;48.916;8.990;2022-08-01T03:26:16;28.30;37.20
12769;DHT22;6448;48.916;8.990;2022-08-01T03:27:20;28.20;37.20
12769;DHT22;6448;48.916;8.990;2022-08-01T03:28:22;28.20;37.20
12769;DHT22;6448;48.916;8.990;2022-08-01T03:29:26;28.20;37.30
12769;DHT22;6448;48.916;8.990;2022-08-01T03:30:29;28.20;37.30
12769;DHT22;6448;48.916;8.990;2022-08-01T03:31:34;28.20;37.30
12769;DHT22;6448;48.916;8.990;2022-08-01T03:32:35;28.20;37.30
12769;DHT22;6448;48.916;8.990;2022-08-01T03:33:37;28.30;37.50
12769;DHT22;6448;48.916;8.990;2022-08-01T03:34:40;28.30;37.50
12769;DHT22;6448;48.916;8.990;2022-08-01T03:35:45;28.20;37.40
12769;DHT22;6448;48.916;8.990;2022-08-01T03:36:53;28.20;37.50
12769;DHT22;6448;48.916;8.990;2022-08-01T03:37:58;28.20;37.40
12769;DHT22;6448;48.916;8.990;2022-08-01T03:39:02;28.20;37.50
12769;DHT22;6448;48.916;8.990;2022-08-01T03:40:07;28.20;37.40
12769;DHT22;6448;48.916;8.990;2022-08-01T03:41:11;28.20;37.50
12769;DHT22;6448;48.916;8.990;2022-08-01T03:42:18;28.20;38.30
12769;DHT22;6448;48.916;8.990;2022-08-01T03:43:22;28.20;37.70
12769;DHT22;6448;48.916;8.990;2022-08-01T03:44:27;28.20;37.70
12769;DHT22;6448;48.916;8.990;2022-08-01T03:45:34;28.10;37.70
12769;DHT22;6448;48.916;8.990;2022-08-01T03:46:40;28.20;37.80
12769;DHT22;6448;48.916;8.990;2022-08-01T03:47:43;28.10;37.80
12769;DHT22;6448;48.916;8.990;2022-08-01T03:48:48;28.10;37.80
12769;DHT22;6448;48.916;8.990;2022-08-01T03:49:51;28.10;37.80
12769;DHT22;6448;48.916;8.990;2022-08-01T03:50:54;28.10;38.00
12769;DHT22;6448;48.916;8.990;2022-08-01T03:51:56;28.10;38.00
12769;DHT22;6448;48.916;8.990;2022-08-01T03:53:00;28.10;38.00
12769;DHT22;6448;48.916;8.990;2022-08-01T03:54:02;28.10;38.00
12769;DHT22;6448;48.916;8.990;2022-08-01T03:55:06;28.10;38.10
12769;DHT22;6448;48.916;8.990;2022-08-01T03:56:08;28.10;38.20
12769;DHT22;6448;48.916;8.990;2022-08-01T03:57:11;28.10;38.20
12769;DHT22;6448;48.916;8.990;2022-08-01T03:58:13;28.10;38.20
12769;DHT22;6448;48.916;8.990;2022-08-01T03:59:15;28.10;38.20
12769;DHT22;6448;48.916;8.990;2022-08-01T04:00:17;28.10;38.40
12769;DHT22;6448;48.916;8.990;2022-08-01T04:01:19;28.10;38.40
12769;DHT22;6448;48.916;8.990;2022-08-01T04:02:21;28.00;38.50
12769;DHT22;6448;48.916;8.990;2022-08-01T04:03:24;28.00;38.40
12769;DHT22;6448;48.916;8.990;2022-08-01T04:04:26;28.10;38.50
12769;DHT22;6448;48.916;8.990;2022-08-01T04:05:29;27.90;38.40
12769;DHT22;6448;48.916;8.990;2022-08-01T04:06:29;28.00;38.50
12769;DHT22;6448;48.916;8.990;2022-08-01T04:07:34;28.00;38.50
12769;DHT22;6448;48.916;8.990;2022-08-01T04:08:37;28.00;38.50
12769;DHT22;6448;48.916;8.990;2022-08-01T04:09:39;27.80;38.50
12769;DHT22;6448;48.916;8.990;2022-08-01T04:10:39;27.90;38.60
12769;DHT22;6448;48.916;8.990;2022-08-01T04:11:42;27.90;38.70
12769;DHT22;6448;48.916;8.990;2022-08-01T04:12:43;27.90;38.70
12769;DHT22;6448;48.916;8.990;2022-08-01T04:13:44;27.90;38.70
12769;DHT22;6448;48.916;8.990;2022-08-01T04:14:45;28.00;38.80
12769;DHT22;6448;48.916;8.990;2022-08-01T04:15:47;27.90;38.80
12769;DHT22;6448;48.916;8.990;2022-08-01T04:16:48;27.90;38.90
12769;DHT22;6448;48.916;8.990;2022-08-01T04:17:50;27.90;38.90
12769;DHT22;6448;48.916;8.990;2022-08-01T04:18:51;28.10;39.00
12769;DHT22;6448;48.916;8.990;2022-08-01T04:19:53;27.90;39.00
12769;DHT22;6448;48.916;8.990;2022-08-01T04:20:56;27.90;39.00
12769;DHT22;6448;48.916;8.990;2022-08-01T04:21:57;27.80;39.00
12769;DHT22;6448;48.916;8.990;2022-08-01T04:22:59;27.90;39.10
12769;DHT22;6448;48.916;8.990;2022-08-01T04:24:03;27.80;39.10
12769;DHT22;6448;48.916;8.990;2022-08-01T04:25:10;27.90;39.20
12769;DHT22;6448;48.916;8.990;2022-08-01T04:26:14;27.80;39.20
12769;DHT22;6448;48.916;8.990;2022-08-01T04:27:19;27.80;39.20
12769;DHT22;6448;48.916;8.990;2022-08-01T04:28:23;27.80;39.20
12769;DHT22;6448;48.916;8.990;2022-08-01T04:29:25;27.80;39.30
12769;DHT22;6448;48.916;8.990;2022-08-01T04:30:29;27.80;39.30
12769;DHT22;6448;48.916;8.990;2022-08-01T04:31:32;27.80;39.50
12769;DHT22;6448;48.916;8.990;2022-08-01T04:32:37;27.80;39.50
12769;DHT22;6448;48.916;8.990;2022-08-01T04:33:43;27.80;39.60
12769;DHT22;6448;48.916;8.990;2022-08-01T04:34:46;27.80;39.60
12769;DHT22;6448;48.916;8.990;2022-08-01T04:35:50;27.80;39.60
12769;DHT22;6448;48.916;8.990;2022-08-01T04:36:55;27.80;39.70
12769;DHT22;6448;48.916;8.990;2022-08-01T04:37:59;27.80;39.90
12769;DHT22;6448;48.916;8.990;2022-08-01T04:39:04;27.80;40.10
12769;DHT22;6448;48.916;8.990;2022-08-01T04:40:07;27.70;39.90
12769;DHT22;6448;48.916;8.990;2022-08-01T04:41:12;27.70;39.90
12769;DHT22;6448;48.916;8.990;2022-08-01T04:42:14;27.80;40.00
12769;DHT22;6448;48.916;8.990;2022-08-01T04:43:16;27.70;39.80
12769;DHT22;6448;48.916;8.990;2022-08-01T04:44:19;27.70;39.80
12769;DHT22;6448;48.916;8.990;2022-08-01T04:45:22;27.80;39.90
12769;DHT22;6448;48.916;8.990;2022-08-01T04:46:23;27.70;39.90
12769;DHT22;6448;48.916;8.990;2022-08-01T04:47:26;27.70;39.80
12769;DHT22;6448;48.916;8.990;2022-08-01T04:48:27;27.70;39.80
12769;DHT22;6448;48.916;8.990;2022-08-01T04:49:30;27.80;39.90
12769;DHT22;6448;48.916;8.990;2022-08-01T04:50:31;27.60;39.80
12769;DHT22;6448;48.916;8.990;2022-08-01T04:51:33;27.60;39.80
12769;DHT22;6448;48.916;8.990;2022-08-01T04:52:37;27.60;39.80
12769;DHT22;6448;48.916;8.990;2022-08-01T04:53:39;27.60;40.00
12769;DHT22;6448;48.916;8.990;2022-08-01T04:54:40;27.60;40.10
12769;DHT22;6448;48.916;8.990;2022-08-01T04:55:42;27.60;40.20
12769;DHT22;6448;48.916;8.990;2022-08-01T04:56:43;27.60;40.30
12769;DHT22;6448;48.916;8.990;2022-08-01T04:57:46;27.60;40.30
12769;DHT22;6448;48.916;8.990;2022-08-01T04:58:47;27.60;40.30
12769;DHT22;6448;48.916;8.990;2022-08-01T05:01:17;27.60;40.30
12769;DHT22;6448;48.916;8.990;2022-08-01T05:02:19;27.70;40.50
12769;DHT22;6448;48.916;8.990;2022-08-01T05:03:20;27.80;40.70
12769;DHT22;6448;48.916;8.990;2022-08-01T05:04:21;27.60;40.60
12769;DHT22;6448;48.916;8.990;2022-08-01T05:05:22;27.60;40.60
12769;DHT22;6448;48.916;8.990;2022-08-01T05:06:26;27.60;40.50
12769;DHT22;6448;48.916;8.990;2022-08-01T05:07:27;27.70;40.60
12769;DHT22;6448;48.916;8.990;2022-08-01T05:08:30;27.40;40.40
12769;DHT22;6448;48.916;8.990;2022-08-01T05:09:31;27.70;40.50
12769;DHT22;6448;48.916;8.990;2022-08-01T05:10:34;27.60;40.60
12769;DHT22;6448;48.916;8.990;2022-08-01T05:11:34;27.50;40.50
12769;DHT22;6448;48.916;8.990;2022-08-01T05:12:36;27.40;40.50
12769;DHT22;6448;48.916;8.990;2022-08-01T05:13:37;27.70;40.70
12769;DHT22;6448;48.916;8.990;2022-08-01T05:14:39;27.70;40.70
12769;DHT22;6448;48.916;8.990;2022-08-01T05:15:40;27.70;40.80
12769;DHT22;6448;48.916;8.990;2022-08-01T05:16:42;27.60;40.70
12769;DHT22;6448;48.916;8.990;2022-08-01T05:17:43;27.50;40.70
12769;DHT22;6448;48.916;8.990;2022-08-01T05:18:45;27.60;40.80
12769;DHT22;6448;48.916;8.990;2022-08-01T05:19:46;27.50;40.80
12769;DHT22;6448;48.916;8.990;2022-08-01T05:20:47;27.40;40.80
12769;DHT22;6448;48.916;8.990;2022-08-01T05:21:48;27.60;41.00
12769;DHT22;6448;48.916;8.990;2022-08-01T05:22:50;27.60;41.00
12769;DHT22;6448;48.916;8.990;2022-08-01T05:23:52;27.60;41.00
12769;DHT22;6448;48.916;8.990;2022-08-01T05:24:54;27.60;41.10
12769;DHT22;6448;48.916;8.990;2022-08-01T05:25:55;27.50;41.10
12769;DHT22;6448;48.916;8.990;2022-08-01T05:26:57;27.50;41.20
12769;DHT22;6448;48.916;8.990;2022-08-01T05:27:58;27.50;41.30
12769;DHT22;6448;48.916;8.990;2022-08-01T05:29:00;27.50;41.40
12769;DHT22;6448;48.916;8.990;2022-08-01T05:30:01;27.50;41.30
12769;DHT22;6448;48.916;8.990;2022-08-01T05:31:02;27.60;41.40
12769;DHT22;6448;48.916;8.990;2022-08-01T05:32:04;27.50;41.40
12769;DHT22;6448;48.916;8.990;2022-08-01T05:33:05;27.50;41.40
12769;DHT22;6448;48.916;8.990;2022-08-01T05:34:06;27.30;41.40
12769;DHT22;6448;48.916;8.990;2022-08-01T05:35:08;27.50;41.50
12769;DHT22;6448;48.916;8.990;2022-08-01T05:36:09;27.50;41.60
12769;DHT22;6448;48.916;8.990;2022-08-01T05:37:11;27.50;41.60
12769;DHT22;6448;48.916;8.990;2022-08-01T05:38:13;27.40;41.50
12769;DHT22;6448;48.916;8.990;2022-08-01T05:39:15;27.30;42.10
12769;DHT22;6448;48.916;8.990;2022-08-01T05:40:17;27.40;41.70
12769;DHT22;6448;48.916;8.990;2022-08-01T05:41:18;27.40;41.70
12769;DHT22;6448;48.916;8.990;2022-08-01T05:42:20;27.40;41.80
12769;DHT22;6448;48.916;8.990;2022-08-01T05:43:21;27.40;41.90
12769;DHT22;6448;48.916;8.990;2022-08-01T05:44:22;27.40;41.90
12769;DHT22;6448;48.916;8.990;2022-08-01T05:45:24;27.40;41.90
12769;DHT22;6448;48.916;8.990;2022-08-01T05:46:25;27.40;41.90
12769;DHT22;6448;48.916;8.990;2022-08-01T05:47:27;27.40;42.00
12769;DHT22;6448;48.916;8.990;2022-08-01T05:48:27;27.40;42.10
12769;DHT22;6448;48.916;8.990;2022-08-01T05:49:30;27.60;42.20
12769;DHT22;6448;48.916;8.990;2022-08-01T05:50:32;27.50;42.20
12769;DHT22;6448;48.916;8.990;2022-08-01T05:51:34;27.40;42.20
12769;DHT22;6448;48.916;8.990;2022-08-01T05:52:36;27.40;42.20
12769;DHT22;6448;48.916;8.990;2022-08-01T05:53:37;27.50;42.40
12769;DHT22;6448;48.916;8.990;2022-08-01T05:54:40;27.40;42.30
12769;DHT22;6448;48.916;8.990;2022-08-01T05:55:41;27.40;42.40
12769;DHT22;6448;48.916;8.990;2022-08-01T05:56:42;27.50;42.60
12769;DHT22;6448;48.916;8.990;2022-08-01T05:57:43;27.40;42.60
12769;DHT22;6448;48.916;8.990;2022-08-01T05:58:45;27.40;42.60
12769;DHT22;6448;48.916;8.990;2022-08-01T05:59:46;27.50;42.70
12769;DHT22;6448;48.916;8.990;2022-08-01T06:00:48;27.50;42.80
12769;DHT22;6448;48.916;8.990;2022-08-01T06:01:48;27.20;42.60
12769;DHT22;6448;48.916;8.990;2022-08-01T06:02:50;27.40;42.80
12769;DHT22;6448;48.916;8.990;2022-08-01T06:03:51;27.50;42.80
12769;DHT22;6448;48.916;8.990;2022-08-01T06:04:55;27.50;42.90
12769;DHT22;6448;48.916;8.990;2022-08-01T06:05:56;27.60;42.90
12769;DHT22;6448;48.916;8.990;2022-08-01T06:06:58;27.50;42.90
12769;DHT22;6448;48.916;8.990;2022-08-01T06:07:59;27.50;42.90
12769;DHT22;6448;48.916;8.990;2022-08-01T06:09:00;27.50;42.90
12769;DHT22;6448;48.916;8.990;2022-08-01T06:10:04;27.60;43.00
12769;DHT22;6448;48.916;8.990;2022-08-01T06:11:06;27.50;43.00
12769;DHT22;6448;48.916;8.990;2022-08-01T06:12:08;27.20;42.80
12769;DHT22;6448;48.916;8.990;2022-08-01T06:13:11;27.50;43.00
12769;DHT22;6448;48.916;8.990;2022-08-01T06:14:13;27.50;42.90
12769;DHT22;6448;48.916;8.990;2022-08-01T06:15:15;27.70;43.10
12769;DHT22;6448;48.916;8.990;2022-08-01T06:16:16;27.50;43.00
12769;DHT22;6448;48.916;8.990;2022-08-01T06:17:18;27.70;43.10
12769;DHT22;6448;48.916;8.990;2022-08-01T06:18:24;27.60;43.10
12769;DHT22;6448;48.916;8.990;2022-08-01T06:19:33;27.50;43.10
12769;DHT22;6448;48.916;8.990;2022-08-01T06:20:35;27.60;43.20
12769;DHT22;6448;48.916;8.990;2022-08-01T06:21:36;27.60;43.20
12769;DHT22;6448;48.916;8.990;2022-08-01T06:22:41;27.60;43.20
12769;DHT22;6448;48.916;8.990;2022-08-01T06:23:51;27.50;43.20
12769;DHT22;6448;48.916;8.990;2022-08-01T06:24:53;27.70;43.30
12769;DHT22;6448;48.916;8.990;2022-08-01T06:25:55;27.50;43.20
12769;DHT22;6448;48.916;8.990;2022-08-01T06:26:58;27.70;43.40
12769;DHT22;6448;48.916;8.990;2022-08-01T06:27:59;27.60;43.40
12769;DHT22;6448;48.916;8.990;2022-08-01T06:29:01;27.60;43.40
12769;DHT22;6448;48.916;8.990;2022-08-01T06:30:03;27.40;43.20
12769;DHT22;6448;48.916;8.990;2022-08-01T06:31:04;27.60;43.40
12769;DHT22;6448;48.916;8.990;2022-08-01T06:32:06;27.60;43.50
12769;DHT22;6448;48.916;8.990;2022-08-01T06:33:07;27.50;43.30
12769;DHT22;6448;48.916;8.990;2022-08-01T06:34:09;27.60;43.50
12769;DHT22;6448;48.916;8.990;2022-08-01T06:35:09;27.80;43.50
12769;DHT22;6448;48.916;8.990;2022-08-01T06:36:11;27.50;43.40
12769;DHT22;6448;48.916;8.990;2022-08-01T06:37:13;27.60;43.50
12769;DHT22;6448;48.916;8.990;2022-08-01T06:38:15;27.60;43.30
12769;DHT22;6448;48.916;8.990;2022-08-01T06:39:17;27.60;43.40
12769;DHT22;6448;48.916;8.990;2022-08-01T06:40:18;27.60;44.10
12769;DHT22;6448;48.916;8.990;2022-08-01T06:41:21;27.60;43.50
12769;DHT22;6448;48.916;8.990;2022-08-01T06:42:28;27.60;43.40
12769;DHT22;6448;48.916;8.990;2022-08-01T06:43:31;27.60;43.50
12769;DHT22;6448;48.916;8.990;2022-08-01T06:44:33;27.60;43.60
12769;DHT22;6448;48.916;8.990;2022-08-01T06:45:34;27.60;43.50
12769;DHT22;6448;48.916;8.990;2022-08-01T06:46:37;27.60;44.20